createdAt,value
2022-07-25T00:00:37.015Z,1014.6
2022-07-25T00:29:33.191Z,1014.33
2022-07-25T00:58:37.339Z,1014.29
2022-07-25T01:27:34.550Z,1013.87
2022-07-25T01:56:36.906Z,1013.78
2022-07-25T02:25:23.797Z,1013.56
2022-07-25T02:54:27.988Z,1013.41
2022-07-25T03:23:26.825Z,1013.5
2022-07-25T03:52:31.710Z,1013.45
2022-07-25T04:21:28.818Z,1013.3
2022-07-25T04:50:31.046Z,1013.12
2022-07-25T05:19:19.933Z,1013.15
2022-07-25T05:48:00.698Z,1013.09
2022-07-25T06:16:50.443Z,1012.98
2022-07-25T06:45:31.927Z,1012.83
2022-07-25T06:59:22.712Z,1012.9
2022-07-25T07:27:41.848Z,1012.81
2022-07-25T07:41:28.198Z,1012.82
2022-07-25T07:58:08.280Z,1012.85
2022-07-25T08:26:38.028Z,1012.67
2022-07-25T08:55:23.616Z,1012.61
2022-07-25T09:11:12.814Z,1012.54
2022-07-25T09:19:54.722Z,1012.48
2022-07-25T09:37:17.395Z,1012.22
2022-07-25T09:44:32.634Z,1012.28
2022-07-25T10:13:17.770Z,1012.12
2022-07-25T10:41:53.427Z,1012.11
2022-07-25T10:52:57.655Z,1012.23
2022-07-25T11:21:33.243Z,1012.06
2022-07-25T11:45:35.299Z,1011.93
2022-07-25T12:14:21.300Z,1011.59
2022-07-25T12:42:58.935Z,1011.66
2022-07-25T13:11:36.000Z,1011.61
2022-07-25T13:20:24.005Z,1011.48
2022-07-25T13:25:47.432Z,1011.57
2022-07-25T13:35:48.488Z,1011.46
2022-07-25T13:50:27.639Z,1011.62
2022-07-25T14:19:20.567Z,1011.52
2022-07-25T14:47:54.250Z,1011.48
2022-07-25T15:16:26.518Z,1011.3
2022-07-25T15:45:32.308Z,1011.45
2022-07-25T16:13:27.906Z,1011.37
2022-07-25T16:42:08.539Z,1011.83
2022-07-25T17:10:50.207Z,1012.04
2022-07-25T17:39:30.441Z,1012.37
2022-07-25T18:08:13.511Z,1012.78
2022-07-25T18:36:50.305Z,1013.02
2022-07-25T19:05:28.703Z,1013.53
2022-07-25T19:33:53.453Z,1013.98
2022-07-25T20:02:39.066Z,1014.56
2022-07-25T20:31:18.176Z,1014.83
2022-07-25T20:59:59.793Z,1015.25
2022-07-25T21:28:55.824Z,1015.62
2022-07-25T21:57:30.193Z,1015.78
2022-07-25T22:26:31.124Z,1015.8
2022-07-25T22:55:24.985Z,1015.84
2022-07-25T23:24:26.288Z,1016.21
2022-07-25T23:53:19.980Z,1016.39
